createdAt,value
2018-11-21T00:00:05.596Z,1.31
2018-11-21T00:01:05.879Z,1.31
2018-11-21T00:02:05.847Z,1.31
2018-11-21T00:03:05.593Z,1.31
2018-11-21T00:04:05.609Z,1.38
2018-11-21T00:05:05.277Z,1.38
2018-11-21T00:06:05.609Z,1.38
2018-11-21T00:07:05.297Z,1.31
2018-11-21T00:08:05.295Z,1.31
2018-11-21T00:09:05.584Z,1.31
2018-11-21T00:10:05.612Z,1.31
2018-11-21T00:11:05.597Z,1.38
2018-11-21T00:12:05.648Z,1.38
2018-11-21T00:13:05.594Z,1.38
2018-11-21T00:14:05.129Z,1.38
2018-11-21T00:15:05.597Z,1.38
2018-11-21T00:16:05.932Z,1.38
2018-11-21T00:17:05.985Z,1.38
2018-11-21T00:18:05.534Z,1.31
2018-11-21T00:19:05.609Z,1.38
2018-11-21T00:20:05.609Z,1.38
2018-11-21T00:21:05.265Z,1.38
2018-11-21T00:22:05.775Z,1.38
2018-11-21T00:23:05.280Z,1.38
2018-11-21T00:24:05.639Z,1.38
2018-11-21T00:25:05.586Z,1.31
2018-11-21T00:26:05.061Z,1.31
2018-11-21T00:27:05.854Z,1.31
2018-11-21T00:28:05.848Z,1.31
2018-11-21T00:29:05.236Z,1.31
2018-11-21T00:30:05.307Z,1.31
2018-11-21T00:31:05.280Z,1.31
2018-11-21T00:32:05.370Z,1.31
2018-11-21T00:33:05.689Z,1.38
2018-11-21T00:34:05.866Z,1.38
2018-11-21T00:35:05.933Z,1.31
2018-11-21T00:36:05.845Z,1.38
2018-11-21T00:37:05.602Z,1.38
2018-11-21T00:38:05.370Z,1.31
2018-11-21T00:39:05.997Z,1.31
2018-11-21T00:40:05.524Z,1.38
2018-11-21T00:41:05.186Z,1.38
2018-11-21T00:42:05.135Z,1.38
2018-11-21T00:43:05.269Z,1.38
2018-11-21T00:44:05.462Z,1.38
2018-11-21T00:45:05.444Z,1.38
2018-11-21T00:46:05.780Z,1.38
2018-11-21T00:47:05.104Z,1.38
2018-11-21T00:48:05.785Z,1.38
2018-11-21T00:49:05.715Z,1.38
2018-11-21T00:50:05.764Z,1.38
2018-11-21T00:51:05.415Z,1.38
2018-11-21T00:52:05.426Z,1.38
2018-11-21T00:53:05.594Z,1.38
2018-11-21T00:54:06.032Z,1.38
2018-11-21T00:55:05.933Z,1.38
2018-11-21T00:56:05.240Z,1.38
2018-11-21T00:57:05.198Z,1.38
2018-11-21T00:58:05.136Z,1.38
2018-11-21T00:59:05.352Z,1.38
2018-11-21T01:00:05.755Z,1.38
2018-11-21T01:01:05.902Z,1.38
2018-11-21T01:02:06.011Z,1.38
2018-11-21T01:03:05.428Z,1.38
2018-11-21T01:04:05.596Z,1.44
2018-11-21T01:05:05.928Z,1.44
2018-11-21T01:06:05.041Z,1.38
2018-11-21T01:07:05.664Z,1.44
2018-11-21T01:08:05.212Z,1.44
2018-11-21T01:09:05.574Z,1.44
2018-11-21T01:10:05.218Z,1.44
2018-11-21T01:11:06.721Z,1.44
2018-11-21T01:12:05.214Z,1.44
2018-11-21T01:13:05.205Z,1.44
2018-11-21T01:14:05.699Z,1.44
2018-11-21T01:15:05.380Z,1.50
2018-11-21T01:16:05.298Z,1.50
2018-11-21T01:17:05.512Z,1.44
2018-11-21T01:18:05.623Z,1.44
2018-11-21T01:19:05.499Z,1.50
2018-11-21T01:20:05.541Z,1.50
2018-11-21T01:21:05.502Z,1.44
2018-11-21T01:22:05.343Z,1.44
2018-11-21T01:23:05.758Z,1.44
2018-11-21T01:24:05.675Z,1.44
2018-11-21T01:25:05.998Z,1.44
2018-11-21T01:26:05.440Z,1.44
2018-11-21T01:27:05.197Z,1.44
2018-11-21T01:28:05.380Z,1.44
2018-11-21T01:29:06.503Z,1.44
2018-11-21T01:30:05.716Z,1.44
2018-11-21T01:31:05.915Z,1.44
2018-11-21T01:32:05.137Z,1.44
2018-11-21T01:33:09.551Z,1.44
2018-11-21T01:34:05.127Z,1.44
2018-11-21T01:35:05.607Z,1.44
2018-11-21T01:36:05.795Z,1.44
2018-11-21T01:37:05.593Z,1.44
2018-11-21T01:38:05.688Z,1.44
2018-11-21T01:39:05.285Z,1.44
2018-11-21T01:40:05.285Z,1.44
2018-11-21T01:41:05.449Z,1.44
2018-11-21T01:42:05.552Z,1.44
2018-11-21T01:43:05.439Z,1.44
2018-11-21T01:44:05.507Z,1.44
2018-11-21T01:45:05.658Z,1.44
2018-11-21T01:46:05.865Z,1.44
2018-11-21T01:47:05.756Z,1.44
2018-11-21T01:48:05.778Z,1.44
2018-11-21T01:49:05.278Z,1.44
2018-11-21T01:50:05.294Z,1.44
2018-11-21T01:51:05.344Z,1.44
2018-11-21T01:52:05.930Z,1.44
2018-11-21T01:53:05.917Z,1.44
2018-11-21T01:54:05.155Z,1.44
2018-11-21T01:55:05.061Z,1.44
2018-11-21T01:56:05.384Z,1.44
2018-11-21T01:57:05.589Z,1.44
2018-11-21T01:58:05.777Z,1.44
2018-11-21T01:59:05.757Z,1.44
2018-11-21T02:00:05.763Z,1.44
2018-11-21T02:01:06.066Z,1.44
2018-11-21T02:02:05.917Z,1.44
2018-11-21T02:03:05.031Z,1.38
2018-11-21T02:04:05.459Z,1.38
2018-11-21T02:05:05.441Z,1.38
2018-11-21T02:06:05.777Z,1.44
2018-11-21T02:07:05.918Z,1.38
2018-11-21T02:08:05.858Z,1.38
2018-11-21T02:09:05.270Z,1.44
2018-11-21T02:10:05.388Z,1.44
2018-11-21T02:11:05.349Z,1.44
2018-11-21T02:12:05.457Z,1.38
2018-11-21T02:13:05.337Z,1.38
2018-11-21T02:14:05.900Z,1.38
2018-11-21T02:15:05.043Z,1.38
2018-11-21T02:16:05.239Z,1.38
2018-11-21T02:17:05.205Z,1.44
2018-11-21T02:18:05.114Z,1.44
2018-11-21T02:19:05.372Z,1.38
2018-11-21T02:20:05.384Z,1.38
2018-11-21T02:21:05.525Z,1.38
2018-11-21T02:22:05.461Z,1.38
2018-11-21T02:23:05.030Z,1.38
2018-11-21T02:24:05.514Z,1.38
2018-11-21T02:25:05.859Z,1.38
2018-11-21T02:26:05.940Z,1.38
2018-11-21T02:27:05.837Z,1.44
2018-11-21T02:28:05.949Z,1.44
2018-11-21T02:29:05.281Z,1.38
2018-11-21T02:30:05.291Z,1.38
2018-11-21T02:31:05.500Z,1.38
2018-11-21T02:32:05.225Z,1.38
2018-11-21T02:33:05.680Z,1.38
2018-11-21T02:34:05.519Z,1.38
2018-11-21T02:35:05.832Z,1.44
2018-11-21T02:36:05.863Z,1.44
2018-11-21T02:37:05.915Z,1.44
2018-11-21T02:38:05.312Z,1.44
2018-11-21T02:39:05.228Z,1.44
2018-11-21T02:40:05.377Z,1.44
2018-11-21T02:41:05.987Z,1.44
2018-11-21T02:42:05.069Z,1.44
2018-11-21T02:43:05.431Z,1.44
2018-11-21T02:44:05.841Z,1.44
2018-11-21T02:45:05.134Z,1.44
2018-11-21T02:46:05.266Z,1.44
2018-11-21T02:47:05.425Z,1.44
2018-11-21T02:48:05.219Z,1.44
2018-11-21T02:49:05.428Z,1.44
2018-11-21T02:50:05.039Z,1.44
2018-11-21T02:51:05.140Z,1.44
2018-11-21T02:52:05.144Z,1.44
2018-11-21T02:53:05.511Z,1.38
2018-11-21T02:54:05.784Z,1.38
2018-11-21T02:55:05.275Z,1.38
2018-11-21T02:56:05.298Z,1.38
2018-11-21T02:57:05.679Z,1.38
2018-11-21T02:58:05.705Z,1.44
2018-11-21T02:59:05.050Z,1.44
2018-11-21T03:00:05.219Z,1.44
2018-11-21T03:01:05.136Z,1.44
2018-11-21T03:02:05.297Z,1.44
2018-11-21T03:03:05.609Z,1.44
2018-11-21T03:04:05.757Z,1.44
2018-11-21T03:05:06.016Z,1.44
2018-11-21T03:06:05.138Z,1.44
2018-11-21T03:07:05.108Z,1.44
2018-11-21T03:08:05.131Z,1.44
2018-11-21T03:09:05.449Z,1.44
2018-11-21T03:10:05.559Z,1.44
2018-11-21T03:11:05.596Z,1.44
2018-11-21T03:12:05.551Z,1.38
2018-11-21T03:13:05.417Z,1.38
2018-11-21T03:14:05.534Z,1.38
2018-11-21T03:15:05.420Z,1.38
2018-11-21T03:16:05.992Z,1.38
2018-11-21T03:17:05.195Z,1.44
2018-11-21T03:18:05.191Z,1.44
2018-11-21T03:19:05.445Z,1.44
2018-11-21T03:20:05.719Z,1.44
2018-11-21T03:21:05.608Z,1.44
2018-11-21T03:22:05.935Z,1.44
2018-11-21T03:23:05.899Z,1.38
2018-11-21T03:24:05.556Z,1.38
2018-11-21T03:25:05.538Z,1.38
2018-11-21T03:26:05.622Z,1.38
2018-11-21T03:27:05.534Z,1.38
2018-11-21T03:28:05.689Z,1.44
2018-11-21T03:29:05.108Z,1.44
2018-11-21T03:30:05.138Z,1.44
2018-11-21T03:31:05.860Z,1.44
2018-11-21T03:32:05.873Z,1.44
2018-11-21T03:33:05.848Z,1.38
2018-11-21T03:34:05.127Z,1.44
2018-11-21T03:35:05.279Z,1.50
2018-11-21T03:36:05.296Z,1.44
2018-11-21T03:37:05.838Z,1.44
2018-11-21T03:38:05.946Z,1.44
2018-11-21T03:39:05.846Z,1.44
2018-11-21T03:40:05.284Z,1.44
2018-11-21T03:41:05.457Z,1.44
2018-11-21T03:42:04.975Z,1.44
2018-11-21T03:43:05.579Z,1.44
2018-11-21T03:44:05.791Z,1.44
2018-11-21T03:45:05.747Z,1.44
2018-11-21T03:46:05.273Z,1.44
2018-11-21T03:47:05.508Z,1.44
2018-11-21T03:48:05.775Z,1.38
2018-11-21T03:49:05.208Z,1.38
2018-11-21T03:50:05.184Z,1.38
2018-11-21T03:51:05.453Z,1.38
2018-11-21T03:52:05.475Z,1.38
2018-11-21T03:53:05.275Z,1.38
2018-11-21T03:54:05.296Z,1.44
2018-11-21T03:55:05.922Z,1.44
2018-11-21T03:56:05.286Z,1.44
2018-11-21T03:57:05.340Z,1.38
2018-11-21T03:58:05.375Z,1.38
2018-11-21T03:59:05.849Z,1.38
2018-11-21T04:00:05.864Z,1.38
2018-11-21T04:01:05.849Z,1.38
2018-11-21T04:02:05.864Z,1.38
2018-11-21T04:03:05.908Z,1.38
2018-11-21T04:04:05.349Z,1.38
2018-11-21T04:05:05.684Z,1.38
2018-11-21T04:06:05.687Z,1.38
2018-11-21T04:07:05.125Z,1.38
2018-11-21T04:08:05.289Z,1.38
2018-11-21T04:09:05.530Z,1.38
2018-11-21T04:10:05.626Z,1.38
2018-11-21T04:11:05.520Z,1.38
2018-11-21T04:12:05.047Z,1.38
2018-11-21T04:13:05.375Z,1.38
2018-11-21T04:14:05.452Z,1.31
2018-11-21T04:15:06.629Z,1.38
2018-11-21T04:16:05.687Z,1.44
2018-11-21T04:17:05.284Z,1.38
2018-11-21T04:18:05.290Z,1.38
2018-11-21T04:19:05.696Z,1.38
2018-11-21T04:20:05.705Z,1.44
2018-11-21T04:21:05.054Z,1.38
2018-11-21T04:22:05.309Z,1.38
2018-11-21T04:23:05.217Z,1.38
2018-11-21T04:24:05.353Z,1.38
2018-11-21T04:25:05.649Z,1.38
2018-11-21T04:26:05.180Z,1.38
2018-11-21T04:27:05.255Z,1.38
2018-11-21T04:28:05.860Z,1.38
2018-11-21T04:29:05.348Z,1.38
2018-11-21T04:30:05.436Z,1.38
2018-11-21T04:31:05.502Z,1.38
2018-11-21T04:32:05.548Z,1.38
2018-11-21T04:33:05.581Z,1.38
2018-11-21T04:34:05.678Z,1.38
2018-11-21T04:35:05.836Z,1.38
2018-11-21T04:36:05.830Z,1.38
2018-11-21T04:37:05.071Z,1.38
2018-11-21T04:38:06.313Z,1.38
2018-11-21T04:39:06.016Z,1.38
2018-11-21T04:40:06.009Z,1.44
2018-11-21T04:41:05.494Z,1.38
2018-11-21T04:42:05.447Z,1.38
2018-11-21T04:43:05.020Z,1.38
2018-11-21T04:44:05.131Z,1.38
2018-11-21T04:45:06.806Z,1.44
2018-11-21T04:46:05.054Z,1.38
2018-11-21T04:47:05.029Z,1.38
2018-11-21T04:48:05.700Z,1.38
2018-11-21T04:49:05.591Z,1.38
2018-11-21T04:50:05.598Z,1.38
2018-11-21T04:51:05.771Z,1.38
2018-11-21T04:52:04.946Z,1.38
2018-11-21T04:53:05.209Z,1.38
2018-11-21T04:54:05.346Z,1.38
2018-11-21T04:55:05.577Z,1.38
2018-11-21T04:56:05.693Z,1.38
2018-11-21T04:57:05.671Z,1.38
2018-11-21T04:58:05.662Z,1.38
2018-11-21T04:59:05.922Z,1.38
2018-11-21T05:00:06.023Z,1.38
2018-11-21T05:01:05.910Z,1.38
2018-11-21T05:02:05.904Z,1.38
2018-11-21T05:03:05.125Z,1.38
2018-11-21T05:04:05.061Z,1.38
2018-11-21T05:05:05.448Z,1.38
2018-11-21T05:06:05.628Z,1.38
2018-11-21T05:07:05.496Z,1.38
2018-11-21T05:08:06.032Z,1.38
2018-11-21T05:09:05.833Z,1.38
2018-11-21T05:10:05.851Z,1.38
2018-11-21T05:11:06.363Z,1.38
2018-11-21T05:12:05.860Z,1.38
2018-11-21T05:13:05.283Z,1.38
2018-11-21T05:14:05.364Z,1.38
2018-11-21T05:15:05.425Z,1.38
2018-11-21T05:16:05.451Z,1.38
2018-11-21T05:17:05.516Z,1.38
2018-11-21T05:18:05.836Z,1.38
2018-11-21T05:19:05.368Z,1.38
2018-11-21T05:20:05.739Z,1.38
2018-11-21T05:21:05.674Z,1.38
2018-11-21T05:22:05.774Z,1.38
2018-11-21T05:23:05.754Z,1.38
2018-11-21T05:24:05.847Z,1.44
2018-11-21T05:25:06.263Z,1.38
2018-11-21T05:26:05.294Z,1.38
2018-11-21T05:27:05.277Z,1.38
2018-11-21T05:28:06.022Z,1.38
2018-11-21T05:29:05.195Z,1.38
2018-11-21T05:30:05.293Z,1.38
2018-11-21T05:31:05.287Z,1.38
2018-11-21T05:32:05.517Z,1.38
2018-11-21T05:33:05.920Z,1.44
2018-11-21T05:34:05.140Z,1.44
2018-11-21T05:35:05.293Z,1.44
2018-11-21T05:36:05.233Z,1.44
2018-11-21T05:37:05.108Z,1.44
2018-11-21T05:38:05.205Z,1.44
2018-11-21T05:39:05.122Z,1.44
2018-11-21T05:40:05.357Z,1.44
2018-11-21T05:41:05.700Z,1.44
2018-11-21T05:42:05.750Z,1.44
2018-11-21T05:43:05.370Z,1.44
2018-11-21T05:44:05.369Z,1.38
2018-11-21T05:45:05.352Z,1.44
2018-11-21T05:46:05.850Z,1.44
2018-11-21T05:47:05.922Z,1.44
2018-11-21T05:48:05.940Z,1.38
2018-11-21T05:49:05.900Z,1.38
2018-11-21T05:50:06.012Z,1.38
2018-11-21T05:51:05.988Z,1.38
2018-11-21T05:52:05.379Z,1.44
2018-11-21T05:53:05.354Z,1.44
2018-11-21T05:54:05.445Z,1.44
2018-11-21T05:55:05.892Z,1.44
2018-11-21T05:56:05.776Z,1.44
2018-11-21T05:57:05.832Z,1.38
2018-11-21T05:58:05.780Z,1.44
2018-11-21T05:59:05.043Z,1.38
2018-11-21T06:00:05.218Z,1.38
2018-11-21T06:01:05.300Z,1.44
2018-11-21T06:02:05.129Z,1.44
2018-11-21T06:03:05.577Z,1.44
2018-11-21T06:04:05.712Z,1.44
2018-11-21T06:05:05.512Z,1.44
2018-11-21T06:06:09.831Z,1.44
2018-11-21T06:07:05.510Z,1.38
2018-11-21T06:08:05.615Z,1.38
2018-11-21T06:09:05.651Z,1.38
2018-11-21T06:10:05.048Z,1.38
2018-11-21T06:11:05.513Z,1.38
2018-11-21T06:12:05.525Z,1.38
2018-11-21T06:13:05.121Z,1.38
2018-11-21T06:14:05.127Z,1.38
2018-11-21T06:15:05.303Z,1.38
2018-11-21T06:16:05.444Z,1.38
2018-11-21T06:17:05.884Z,1.44
2018-11-21T06:18:05.697Z,1.44
2018-11-21T06:19:05.132Z,1.38
2018-11-21T06:20:05.053Z,1.38
2018-11-21T06:21:05.421Z,1.38
2018-11-21T06:22:05.867Z,1.38
2018-11-21T06:23:05.824Z,1.38
2018-11-21T06:24:05.756Z,1.38
2018-11-21T06:25:06.005Z,1.38
2018-11-21T06:26:05.943Z,1.38
2018-11-21T06:27:05.910Z,1.38
2018-11-21T06:28:05.541Z,1.38
2018-11-21T06:29:05.845Z,1.38
2018-11-21T06:30:05.209Z,1.38
2018-11-21T06:31:05.300Z,1.38
2018-11-21T06:32:05.204Z,1.38
2018-11-21T06:33:05.341Z,1.38
2018-11-21T06:34:05.514Z,1.38
2018-11-21T06:35:05.692Z,1.38
2018-11-21T06:36:05.921Z,1.38
2018-11-21T06:37:05.126Z,1.38
2018-11-21T06:38:05.765Z,1.38
2018-11-21T06:39:05.791Z,1.38
2018-11-21T06:40:05.683Z,1.38
2018-11-21T06:41:05.619Z,1.38
2018-11-21T06:42:05.922Z,1.38
2018-11-21T06:43:05.960Z,1.38
2018-11-21T06:44:05.848Z,1.38
2018-11-21T06:45:05.161Z,1.38
2018-11-21T06:46:05.206Z,1.38
2018-11-21T06:47:05.660Z,1.38
2018-11-21T06:48:05.688Z,1.38
2018-11-21T06:49:04.977Z,1.44
2018-11-21T06:50:05.592Z,1.38
2018-11-21T06:51:05.728Z,1.38
2018-11-21T06:52:05.601Z,1.38
2018-11-21T06:53:05.211Z,1.38
2018-11-21T06:54:05.536Z,1.38
2018-11-21T06:55:05.783Z,1.38
2018-11-21T06:56:05.702Z,1.38
2018-11-21T06:57:06.011Z,1.38
2018-11-21T06:58:06.014Z,1.38
2018-11-21T06:59:05.305Z,1.38
2018-11-21T07:00:05.687Z,1.38
2018-11-21T07:01:05.779Z,1.38
2018-11-21T07:02:05.767Z,1.38
2018-11-21T07:03:05.688Z,1.38
2018-11-21T07:04:05.265Z,1.38
2018-11-21T07:05:05.349Z,1.38
2018-11-21T07:06:05.515Z,1.38
2018-11-21T07:07:06.015Z,1.44
2018-11-21T07:08:05.037Z,1.44
2018-11-21T07:09:05.689Z,1.44
2018-11-21T07:10:06.078Z,1.44
2018-11-21T07:11:05.147Z,1.44
2018-11-21T07:12:05.102Z,1.44
2018-11-21T07:13:10.909Z,1.50
2018-11-21T07:14:07.169Z,1.50
2018-11-21T07:15:05.847Z,1.44
2018-11-21T07:16:05.049Z,1.44
2018-11-21T07:17:05.148Z,1.44
2018-11-21T07:18:05.192Z,1.44
2018-11-21T07:19:05.954Z,1.44
2018-11-21T07:20:05.851Z,1.44
2018-11-21T07:21:06.924Z,1.44
2018-11-21T07:22:05.270Z,1.38
2018-11-21T07:23:05.604Z,1.38
2018-11-21T07:24:05.021Z,1.38
2018-11-21T07:25:05.205Z,1.44
2018-11-21T07:26:05.026Z,1.44
2018-11-21T07:27:05.209Z,1.38
2018-11-21T07:28:05.576Z,1.38
2018-11-21T07:29:05.615Z,1.38
2018-11-21T07:30:05.448Z,1.38
2018-11-21T07:31:05.934Z,1.38
2018-11-21T07:32:05.212Z,1.44
2018-11-21T07:33:05.369Z,1.44
2018-11-21T07:34:05.376Z,1.38
2018-11-21T07:35:05.629Z,1.38
2018-11-21T07:36:05.614Z,1.44
2018-11-21T07:37:05.824Z,1.38
2018-11-21T07:38:05.981Z,1.38
2018-11-21T07:39:05.687Z,1.38
2018-11-21T07:40:06.012Z,1.38
2018-11-21T07:41:05.136Z,1.44
2018-11-21T07:42:05.695Z,1.44
2018-11-21T07:43:05.785Z,1.44
2018-11-21T07:44:05.848Z,1.44
2018-11-21T07:45:05.848Z,1.44
2018-11-21T07:46:05.650Z,1.44
2018-11-21T07:47:05.680Z,1.44
2018-11-21T07:48:05.997Z,1.44
2018-11-21T07:49:05.313Z,1.44
2018-11-21T07:50:05.744Z,1.44
2018-11-21T07:51:05.770Z,1.44
2018-11-21T07:52:05.488Z,1.44
2018-11-21T07:53:05.612Z,1.44
2018-11-21T07:54:05.761Z,1.44
2018-11-21T07:55:06.668Z,1.44
2018-11-21T07:56:05.925Z,1.44
2018-11-21T07:57:06.117Z,1.44
2018-11-21T07:58:05.131Z,1.44
2018-11-21T07:59:05.506Z,1.50
2018-11-21T08:00:05.589Z,1.50
2018-11-21T08:01:05.503Z,1.50
2018-11-21T08:02:05.603Z,1.44
2018-11-21T08:03:05.691Z,1.44
2018-11-21T08:04:06.010Z,1.44
2018-11-21T08:05:06.200Z,1.44
2018-11-21T08:06:05.212Z,1.50
2018-11-21T08:07:05.612Z,1.44
2018-11-21T08:08:05.689Z,1.50
2018-11-21T08:09:05.157Z,1.50
2018-11-21T08:10:05.134Z,1.50
2018-11-21T08:11:05.345Z,1.50
2018-11-21T08:12:05.436Z,1.50
2018-11-21T08:13:05.931Z,1.50
2018-11-21T08:14:05.986Z,1.56
2018-11-21T08:15:05.133Z,1.56
2018-11-21T08:16:05.545Z,1.56
2018-11-21T08:17:05.589Z,1.56
2018-11-21T08:18:05.914Z,1.50
2018-11-21T08:19:05.456Z,1.50
2018-11-21T08:20:05.916Z,1.50
2018-11-21T08:21:05.352Z,1.56
2018-11-21T08:22:05.525Z,1.56
2018-11-21T08:23:06.019Z,1.62
2018-11-21T08:24:05.437Z,1.56
2018-11-21T08:25:05.363Z,1.62
2018-11-21T08:26:05.614Z,1.62
2018-11-21T08:27:05.695Z,1.56
2018-11-21T08:28:05.359Z,1.62
2018-11-21T08:29:05.298Z,1.62
2018-11-21T08:30:05.270Z,1.56
2018-11-21T08:31:05.298Z,1.56
2018-11-21T08:32:05.917Z,1.56
2018-11-21T08:33:05.558Z,1.56
2018-11-21T08:34:05.427Z,1.56
2018-11-21T08:35:05.034Z,1.56
2018-11-21T08:36:05.299Z,1.56
2018-11-21T08:37:05.452Z,1.62
2018-11-21T08:38:05.982Z,1.62
2018-11-21T08:39:05.951Z,1.62
2018-11-21T08:40:06.006Z,1.62
2018-11-21T08:41:05.609Z,1.62
2018-11-21T08:42:05.688Z,1.62
2018-11-21T08:43:05.922Z,1.62
2018-11-21T08:44:05.186Z,1.62
2018-11-21T08:45:05.773Z,1.62
2018-11-21T08:46:05.747Z,1.62
2018-11-21T08:47:05.950Z,1.62
2018-11-21T08:48:05.914Z,1.69
2018-11-21T08:49:06.019Z,1.62
2018-11-21T08:50:05.902Z,1.62
2018-11-21T08:51:06.103Z,1.62
2018-11-21T08:52:05.342Z,1.62
2018-11-21T08:53:05.367Z,1.62
2018-11-21T08:54:05.360Z,1.56
2018-11-21T08:55:08.854Z,1.62
2018-11-21T08:56:05.535Z,1.56
2018-11-21T08:57:05.622Z,1.50
2018-11-21T08:58:05.438Z,1.50
2018-11-21T08:59:05.627Z,1.50
2018-11-21T09:00:05.534Z,1.50
2018-11-21T09:01:05.671Z,1.56
2018-11-21T09:02:05.821Z,1.56
2018-11-21T09:03:05.956Z,1.56
2018-11-21T09:04:05.993Z,1.50
2018-11-21T09:05:05.388Z,1.56
2018-11-21T09:06:05.619Z,1.56
2018-11-21T09:07:05.782Z,1.62
2018-11-21T09:08:05.932Z,1.56
2018-11-21T09:09:05.854Z,1.56
2018-11-21T09:10:05.307Z,1.56
2018-11-21T09:11:05.452Z,1.56
2018-11-21T09:12:08.639Z,1.62
2018-11-21T09:13:05.456Z,1.56
2018-11-21T09:14:05.513Z,1.56
2018-11-21T09:15:05.530Z,1.56
2018-11-21T09:16:05.909Z,1.56
2018-11-21T09:17:05.452Z,1.56
2018-11-21T09:18:05.046Z,1.56
2018-11-21T09:19:05.718Z,1.56
2018-11-21T09:20:05.704Z,1.56
2018-11-21T09:21:05.853Z,1.56
2018-11-21T09:22:05.368Z,1.56
2018-11-21T09:23:05.855Z,1.56
2018-11-21T09:24:05.909Z,1.56
2018-11-21T09:25:05.477Z,1.56
2018-11-21T09:26:05.458Z,1.56
2018-11-21T09:27:05.614Z,1.56
2018-11-21T09:28:05.130Z,1.56
2018-11-21T09:29:05.455Z,1.62
2018-11-21T09:30:05.421Z,1.62
2018-11-21T09:31:05.449Z,1.56
2018-11-21T09:32:05.527Z,1.56
2018-11-21T09:33:05.528Z,1.50
2018-11-21T09:34:05.659Z,1.56
2018-11-21T09:35:05.864Z,1.56
2018-11-21T09:36:05.845Z,1.56
2018-11-21T09:37:06.019Z,1.62
2018-11-21T09:38:05.366Z,1.62
2018-11-21T09:39:05.289Z,1.62
2018-11-21T09:40:06.979Z,1.62
2018-11-21T09:41:05.537Z,1.62
2018-11-21T09:42:06.014Z,1.62
2018-11-21T09:43:05.485Z,1.62
2018-11-21T09:44:05.696Z,1.69
2018-11-21T09:45:05.819Z,1.69
2018-11-21T09:46:05.760Z,1.69
2018-11-21T09:47:05.748Z,1.69
2018-11-21T09:48:06.068Z,1.75
2018-11-21T09:49:05.812Z,1.69
2018-11-21T09:50:05.924Z,1.69
2018-11-21T09:51:05.186Z,1.69
2018-11-21T09:52:05.350Z,1.69
2018-11-21T09:53:05.289Z,1.75
2018-11-21T09:54:05.389Z,1.69
2018-11-21T09:55:05.526Z,1.69
2018-11-21T09:56:05.191Z,1.69
2018-11-21T09:57:05.611Z,1.69
2018-11-21T09:58:05.131Z,1.75
2018-11-21T09:59:05.263Z,1.75
2018-11-21T10:00:05.455Z,1.75
2018-11-21T10:01:05.771Z,1.81
2018-11-21T10:02:05.067Z,1.81
2018-11-21T10:03:05.394Z,1.75
2018-11-21T10:04:05.355Z,1.75
2018-11-21T10:05:05.380Z,1.75
2018-11-21T10:06:05.449Z,1.81
2018-11-21T10:07:05.381Z,1.81
2018-11-21T10:08:05.445Z,1.81
2018-11-21T10:09:05.462Z,1.81
2018-11-21T10:10:05.913Z,1.81
2018-11-21T10:11:05.477Z,1.81
2018-11-21T10:12:05.360Z,1.88
2018-11-21T10:13:05.373Z,1.88
2018-11-21T10:14:05.427Z,1.88
2018-11-21T10:15:06.016Z,1.88
2018-11-21T10:16:05.439Z,1.88
2018-11-21T10:17:05.841Z,1.88
2018-11-21T10:18:05.222Z,1.88
2018-11-21T10:19:05.222Z,1.88
2018-11-21T10:20:05.346Z,1.94
2018-11-21T10:21:05.466Z,1.94
2018-11-21T10:22:05.769Z,1.88
2018-11-21T10:23:06.116Z,1.94
2018-11-21T10:24:06.001Z,1.94
2018-11-21T10:25:05.145Z,1.94
2018-11-21T10:26:05.680Z,1.94
2018-11-21T10:27:05.644Z,1.94
2018-11-21T10:28:05.598Z,1.94
2018-11-21T10:29:05.049Z,1.94
2018-11-21T10:30:05.276Z,1.94
2018-11-21T10:31:05.370Z,1.94
2018-11-21T10:32:05.382Z,1.88
2018-11-21T10:33:05.614Z,1.94
2018-11-21T10:34:05.664Z,1.94
2018-11-21T10:35:05.223Z,1.94
2018-11-21T10:36:05.856Z,1.88
2018-11-21T10:37:05.232Z,1.94
2018-11-21T10:38:05.055Z,1.94
2018-11-21T10:39:05.199Z,1.94
2018-11-21T10:40:05.417Z,1.94
2018-11-21T10:41:05.045Z,1.94
2018-11-21T10:42:05.118Z,1.94
2018-11-21T10:43:05.131Z,1.94
2018-11-21T10:44:05.521Z,2.00
2018-11-21T10:45:05.536Z,2.00
2018-11-21T10:46:05.111Z,1.94
2018-11-21T10:47:05.800Z,2.00
2018-11-21T10:48:05.749Z,1.94
2018-11-21T10:49:05.853Z,1.94
2018-11-21T10:50:05.432Z,1.94
2018-11-21T10:51:05.775Z,1.94
2018-11-21T10:52:05.852Z,1.94
2018-11-21T10:53:05.785Z,2.00
2018-11-21T10:54:05.213Z,2.00
2018-11-21T10:55:05.467Z,2.00
2018-11-21T10:56:05.369Z,2.00
2018-11-21T10:57:05.449Z,2.00
2018-11-21T10:58:05.507Z,2.00
2018-11-21T10:59:05.547Z,2.00
2018-11-21T11:00:05.578Z,2.00
2018-11-21T11:01:05.770Z,2.00
2018-11-21T11:02:05.815Z,2.00
2018-11-21T11:03:05.628Z,2.00
2018-11-21T11:04:05.456Z,2.00
2018-11-21T11:05:05.449Z,2.00
2018-11-21T11:06:05.030Z,2.00
2018-11-21T11:07:05.112Z,2.00
2018-11-21T11:08:05.355Z,2.00
2018-11-21T11:09:05.375Z,2.06
2018-11-21T11:10:05.382Z,2.06
2018-11-21T11:11:06.044Z,2.06
2018-11-21T11:12:05.996Z,2.06
2018-11-21T11:13:05.535Z,2.06
2018-11-21T11:14:05.943Z,2.06
2018-11-21T11:15:05.142Z,2.06
2018-11-21T11:16:05.503Z,2.06
2018-11-21T11:17:05.608Z,2.12
2018-11-21T11:18:05.994Z,2.12
2018-11-21T11:19:05.296Z,2.12
2018-11-21T11:20:08.513Z,2.12
2018-11-21T11:21:05.304Z,2.12
2018-11-21T11:22:05.111Z,2.12
2018-11-21T11:23:05.620Z,2.12
2018-11-21T11:24:05.513Z,2.12
2018-11-21T11:25:05.296Z,2.12
2018-11-21T11:26:05.605Z,2.12
2018-11-21T11:27:05.150Z,2.12
2018-11-21T11:28:05.056Z,2.12
2018-11-21T11:29:05.875Z,2.12
2018-11-21T11:30:06.699Z,2.12
2018-11-21T11:31:05.773Z,2.19
2018-11-21T11:32:05.189Z,2.19
2018-11-21T11:33:05.211Z,2.19
2018-11-21T11:34:05.618Z,2.19
2018-11-21T11:35:05.854Z,2.19
2018-11-21T11:36:05.706Z,2.19
2018-11-21T11:37:05.948Z,2.25
2018-11-21T11:38:05.902Z,2.25
2018-11-21T11:39:06.111Z,2.25
2018-11-21T11:40:05.019Z,2.25
2018-11-21T11:41:05.038Z,2.25
2018-11-21T11:42:05.123Z,2.25
2018-11-21T11:43:05.859Z,2.25
2018-11-21T11:44:05.762Z,2.25
2018-11-21T11:45:05.694Z,2.25
2018-11-21T11:46:05.132Z,2.25
2018-11-21T11:47:05.139Z,2.25
2018-11-21T11:48:05.663Z,2.25
2018-11-21T11:49:05.769Z,2.25
2018-11-21T11:50:05.181Z,2.25
2018-11-21T11:51:05.444Z,2.25
2018-11-21T11:52:05.772Z,2.25
2018-11-21T11:53:05.972Z,2.31
2018-11-21T11:54:06.098Z,2.31
2018-11-21T11:55:06.025Z,2.31
2018-11-21T11:56:06.016Z,2.31
2018-11-21T11:57:05.211Z,2.31
2018-11-21T11:58:05.228Z,2.31
2018-11-21T11:59:05.384Z,2.25
2018-11-21T12:00:05.662Z,2.31
2018-11-21T12:01:05.295Z,2.25
2018-11-21T12:02:05.497Z,2.31
2018-11-21T12:03:05.612Z,2.31
2018-11-21T12:04:05.589Z,2.31
2018-11-21T12:05:06.013Z,2.31
2018-11-21T12:06:05.347Z,2.31
2018-11-21T12:07:05.920Z,2.31
2018-11-21T12:08:05.066Z,2.31
2018-11-21T12:09:05.387Z,2.31
2018-11-21T12:10:05.184Z,2.31
2018-11-21T12:11:05.294Z,2.31
2018-11-21T12:12:05.522Z,2.31
2018-11-21T12:13:05.697Z,2.38
2018-11-21T12:14:05.119Z,2.31
2018-11-21T12:15:05.688Z,2.38
2018-11-21T12:16:05.028Z,2.38
2018-11-21T12:17:05.765Z,2.38
2018-11-21T12:18:05.380Z,2.38
2018-11-21T12:19:05.205Z,2.38
2018-11-21T12:20:05.215Z,2.38
2018-11-21T12:21:05.420Z,2.38
2018-11-21T12:22:05.429Z,2.38
2018-11-21T12:23:05.558Z,2.44
2018-11-21T12:24:05.444Z,2.44
2018-11-21T12:25:05.554Z,2.44
2018-11-21T12:26:10.316Z,2.44
2018-11-21T12:27:05.268Z,2.44
2018-11-21T12:28:05.509Z,2.44
2018-11-21T12:29:06.136Z,2.44
2018-11-21T12:30:05.900Z,2.38
2018-11-21T12:31:05.550Z,2.44
2018-11-21T12:32:05.458Z,2.44
2018-11-21T12:33:05.456Z,2.44
2018-11-21T12:34:05.362Z,2.44
2018-11-21T12:35:05.741Z,2.44
2018-11-21T12:36:05.746Z,2.44
2018-11-21T12:37:05.070Z,2.44
2018-11-21T12:38:05.387Z,2.44
2018-11-21T12:39:05.353Z,2.50
2018-11-21T12:40:06.103Z,2.50
2018-11-21T12:41:05.441Z,2.44
2018-11-21T12:42:05.536Z,2.44
2018-11-21T12:43:05.920Z,2.44
2018-11-21T12:44:06.117Z,2.44
2018-11-21T12:45:05.029Z,2.44
2018-11-21T12:46:05.149Z,2.44
2018-11-21T12:47:05.526Z,2.44
2018-11-21T12:48:05.629Z,2.44
2018-11-21T12:49:05.237Z,2.44
2018-11-21T12:50:05.554Z,2.50
2018-11-21T12:51:05.357Z,2.50
2018-11-21T12:52:05.927Z,2.44
2018-11-21T12:53:05.279Z,2.50
2018-11-21T12:54:05.292Z,2.44
2018-11-21T12:55:06.739Z,2.44
2018-11-21T12:56:05.926Z,2.44
2018-11-21T12:57:05.039Z,2.50
2018-11-21T12:58:05.066Z,2.50
2018-11-21T12:59:05.113Z,2.50
2018-11-21T13:00:05.424Z,2.44
2018-11-21T13:01:05.680Z,2.44
2018-11-21T13:02:05.791Z,2.44
2018-11-21T13:03:05.757Z,2.44
2018-11-21T13:04:05.845Z,2.44
2018-11-21T13:05:05.196Z,2.44
2018-11-21T13:06:05.224Z,2.44
2018-11-21T13:07:05.305Z,2.44
2018-11-21T13:08:05.300Z,2.44
2018-11-21T13:09:05.284Z,2.44
2018-11-21T13:10:05.125Z,2.44
2018-11-21T13:11:05.123Z,2.44
2018-11-21T13:12:05.131Z,2.44
2018-11-21T13:13:05.185Z,2.44
2018-11-21T13:14:05.628Z,2.44
2018-11-21T13:15:05.756Z,2.44
2018-11-21T13:16:05.231Z,2.44
2018-11-21T13:17:05.187Z,2.38
2018-11-21T13:18:05.130Z,2.38